If you wish to contribute or participate in the discussions about articles you are invited to join SKYbrary as a registered user

 Actions

Gorgan Airport

From SKYbrary Wiki

OING
Airport
ICAO: OING – IATA: GBT
Summary
Name Gorgan Airport
Region Middle East
Territory Iran IR.gif
Location Amir Abad, Golestan
Serving Grgan
Elevation -7.315 m
-24 ft-7.315 m
Coordinates 36° 54' 29.32" N, 54° 24' 35.85" E
Runways
Designator Length Width Surface ROPS
14/32 2298 m7,539.37 ft
45 m147.638 ft
ASP /


METAR
Observation OING 191300Z 29004KT 2000 -DZ BR BKN005 OVC080 12/11 Q1017
Station Gorgan
Date/Time 19 April 2019 13:00:00
Wind direction 290°
Wind speed 04 kts
Lowest cloud amount broken clouds
Temperature 12°C
Dew point 11°C
Humidity 93%
QNH 1017 hPa
Weather condition n/a

International airport 6km3.24 nm
6,000 m
19,685.039 ft
north of the city of Gorgan, Iran.

Climatology

Mediterranean climate (Köppen climate classification Csa).

Maps

Terrain

Loading map...

Airport Layout

Loading map...


Accidents & Serious Incidents at or in vicinity of OING

None on SKYbrary